Terminal Aerodrome Forecast
Issued by NWS

Home | Current Version | Previous Version | Text Only | Print | Product List | Glossary On
Versions: 1 2 3 4 5 6 7 8 9 10 11 12 13 14 15 16 17 18 19 20 21 22 23 24 25 26 27 28 29 30 31 32 33 34 35 36 37 38 39 40 41 42 43 44
000
FTUS42 KJAX 221838 AAX
TAFSGJ
TAF AMD
KSGJ 221838Z 2219/2318 12009KT 6SM HZ VCTS BKN025CB OVC250
      TEMPO 2219/2222 VRB15G25KT 5SM SHRA BR BKN012
     FM222300 07011KT P6SM VCSH SCT022 BKN150
     FM230300 09008KT 6SM HZ VCSH FEW022 SCT080 BKN200
     FM231500 09010KT P6SM VCSH SCT030 BKN200=

USA.gov is the U.S. government's official web portal to all federal, state and local government web resources and services.